Cherokee — 9HBC7 — position and weather

sailwx.info

Track history (hours):
 
Tides and Currents Weather Stations Pressure Air Temp Water Temp Dewpoint Dewpoint Depression Visibility Wind Speed Wind Dir Waves Ship Positions

Cherokee

Last reported at 2017-Nov-14 11:04 UTC. Time now 2017-Nov-21 23:17 UTC.
Position N 45°07' E 036°29'.

Length 140 m; draft 3.8 m.

Type: Cargo ship. MMSI: 215059000.

Date/timePositionNaut miles runAvg speedWind from/ knotsBaromVisibWave heightAir tempDewpointWater temp
2017-Nov-14 11:04N 45°07' E 036°29'1 7.6
2017-Nov-14 11:00N 45°07' E 036°29'4 7.5
2017-Nov-14 10:30N 45°11' E 036°28'4 7.6
2017-Nov-14 10:00N 45°15' E 036°28'3 6.3
2017-Nov-14 09:30N 45°18' E 036°29'4 7.8
2017-Nov-14 09:00N 45°20' E 036°34'4 8.0
2017-Nov-14 08:30N 45°21' E 036°39'3 6.8
2017-Nov-14 08:00N 45°24' E 036°40'3 6.0
2017-Nov-14 07:30N 45°28' E 036°40'3 6.5
2017-Nov-14 07:00N 45°30' E 036°37'  
Track history (hours):
 
Tides and Currents Weather Stations Pressure Air Temp Water Temp Dewpoint Dewpoint Depression Visibility Wind Speed Wind Dir Waves Ship Positions

Cherokee

Last reported at 2017-Nov-14 11:04 UTC. Time now 2017-Nov-21 23:17 UTC.
Position N 45°07' E 036°29'.

Length 140 m; draft 3.8 m.

Type: Cargo ship. MMSI: 215059000.

Date/timePositionNaut miles runAvg speedWind from/ knotsBaromVisibWave heightAir tempDewpointWater temp
2017-Nov-14 11:04N 45°07' E 036°29'1 7.6
2017-Nov-14 11:00N 45°07' E 036°29'4 7.5
2017-Nov-14 10:30N 45°11' E 036°28'4 7.6
2017-Nov-14 10:00N 45°15' E 036°28'3 6.3
2017-Nov-14 09:30N 45°18' E 036°29'4 7.8
2017-Nov-14 09:00N 45°20' E 036°34'4 8.0
2017-Nov-14 08:30N 45°21' E 036°39'3 6.8
2017-Nov-14 08:00N 45°24' E 036°40'3 6.0
2017-Nov-14 07:30N 45°28' E 036°40'3 6.5
2017-Nov-14 07:00N 45°30' E 036°37'  

Dump ship's entire track history